Time;durP1;ratioP1;P1;durP2;ratioP2;P2;SDS_P1;SDS_P2;PMS_P1;PMS_P2;Temp;Humidity;BMP_temperature;BMP_pressure;BME280_temperature;BME280_humidity;BME280_pressure;Samples;Min_cycle;Max_cycle;Signal;HPM_P1;HPM_P2
2023/06/11 00:01:29;;;;;;;11.50;5.43;;;;;;;;;;6226354;22;20109;-87
2023/06/11 00:03:55;;;;;;;12.07;6.03;;;;;;;;;;6226679;22;20323;-86
2023/06/11 00:06:23;;;;;;;19.25;6.43;;;;;;;;;;6252532;22;20458;-86
2023/06/11 00:08:52;;;;;;;13.48;5.50;;;;;;;;;;6226872;22;20012;-86
2023/06/11 00:11:20;;;;;;;17.00;6.47;;;;;;;;;;6251502;22;20014;-85
2023/06/11 00:13:46;;;;;;;17.10;6.13;;;;;;;;;;6224994;22;20444;-86
2023/06/11 00:16:13;;;;;;;15.27;6.20;;;;;;;;;;6225130;22;20031;-86
2023/06/11 00:18:41;;;;;;;11.50;5.70;;;;;;;;;;6250099;22;20155;-85
2023/06/11 00:21:11;;;;;;;14.73;5.88;;;;;;;;;;6278852;22;20029;-86
2023/06/11 00:23:44;;;;;;;15.00;5.68;;;;;;;;;;6277771;22;20425;-86
2023/06/11 00:26:11;;;;;;;17.10;6.15;;;;;;;;;;6278165;22;20004;-86
2023/06/11 00:28:37;;;;;;;17.30;6.57;;;;;;;;;;6226649;22;20493;-85
2023/06/11 00:31:11;;;;;;;11.90;5.88;;;;;;;;;;6250259;22;20000;-86
2023/06/11 00:33:37;;;;;;;13.80;6.28;;;;;;;;;;6249296;22;20003;-87
2023/06/11 00:36:04;;;;;;;12.77;6.30;;;;;;;;;;6250880;22;20011;-87
2023/06/11 00:38:33;;;;;;;23.05;6.35;;;;;;;;;;6278850;22;20000;-86
2023/06/11 00:40:59;;;;;;;17.23;7.38;;;;;;;;;;6253390;22;20507;-87
2023/06/11 00:43:37;;;;;;;13.23;6.15;;;;;;;;;;6251367;22;20031;-87
2023/06/11 00:46:10;;;;;;;11.60;6.15;;;;;;;;;;6226001;22;20065;-86
2023/06/11 00:48:43;;;;;;;15.48;7.03;;;;;;;;;;6247461;22;20519;-87
2023/06/11 00:51:10;;;;;;;14.43;6.57;;;;;;;;;;6249875;22;20008;-87
2023/06/11 00:53:38;;;;;;;19.35;6.60;;;;;;;;;;6249847;22;20003;-87
2023/06/11 00:56:04;;;;;;;15.38;6.85;;;;;;;;;;6227172;22;20008;-87
2023/06/11 00:58:33;;;;;;;17.45;7.28;;;;;;;;;;6225137;22;20026;-86
2023/06/11 01:01:05;;;;;;;18.05;7.20;;;;;;;;;;6220870;22;20043;-85
2023/06/11 01:03:33;;;;;;;11.93;6.88;;;;;;;;;;6251251;22;20003;-86
2023/06/11 01:06:17;;;;;;;19.85;6.85;;;;;;;;;;6248982;22;20345;-86
2023/06/11 01:08:43;;;;;;;9.73;6.45;;;;;;;;;;6250962;22;20000;-86
2023/06/11 01:11:13;;;;;;;18.15;8.48;;;;;;;;;;6224572;22;20098;-86
2023/06/11 01:13:42;;;;;;;13.57;6.95;;;;;;;;;;6226749;22;20023;-86
2023/06/11 01:16:16;;;;;;;16.67;7.18;;;;;;;;;;6250644;22;20008;-86
2023/06/11 01:19:05;;;;;;;14.23;7.53;;;;;;;;;;6251915;22;20008;-86
2023/06/11 01:21:56;;;;;;;9.13;6.57;;;;;;;;;;6251684;22;20037;-86
2023/06/11 01:24:42;;;;;;;14.60;7.60;;;;;;;;;;6236717;22;20004;-86
2023/06/11 01:27:11;;;;;;;11.95;7.40;;;;;;;;;;6251346;22;20091;-86
2023/06/11 01:29:45;;;;;;;12.85;7.53;;;;;;;;;;6251587;22;20493;-86
2023/06/11 01:32:18;;;;;;;14.15;7.30;;;;;;;;;;6277234;22;20066;-86
2023/06/11 01:34:45;;;;;;;18.95;8.00;;;;;;;;;;6251071;22;20007;-87
2023/06/11 01:37:15;;;;;;;14.63;7.60;;;;;;;;;;6225471;22;20062;-87
2023/06/11 01:39:47;;;;;;;11.15;7.10;;;;;;;;;;6278129;22;20429;-87
2023/06/11 01:42:14;;;;;;;14.32;7.38;;;;;;;;;;6227582;22;20328;-86
2023/06/11 01:44:41;;;;;;;19.83;7.60;;;;;;;;;;6252110;22;20429;-87
2023/06/11 01:47:07;;;;;;;18.10;7.88;;;;;;;;;;6250489;22;20007;-87
2023/06/11 01:49:35;;;;;;;12.80;7.28;;;;;;;;;;6250109;22;20043;-86
2023/06/11 01:52:01;;;;;;;16.10;7.97;;;;;;;;;;6249500;22;20004;-87
2023/06/11 01:54:30;;;;;;;13.65;7.75;;;;;;;;;;6250619;22;20015;-87
2023/06/11 01:56:56;;;;;;;13.95;8.50;;;;;;;;;;6251053;22;20035;-87
2023/06/11 01:59:24;;;;;;;14.63;8.77;;;;;;;;;;6250683;22;20022;-86
2023/06/11 02:01:52;;;;;;;14.20;7.57;;;;;;;;;;6250625;22;20342;-87
2023/06/11 02:04:25;;;;;;;15.32;8.35;;;;;;;;;;6252389;22;20016;-86
2023/06/11 02:06:52;;;;;;;12.82;7.75;;;;;;;;;;6252497;22;20093;-86
2023/06/11 02:09:18;;;;;;;13.35;8.32;;;;;;;;;;6250150;22;20036;-85
2023/06/11 02:11:44;;;;;;;24.45;8.85;;;;;;;;;;6250421;22;20422;-86
2023/06/11 02:14:16;;;;;;;17.90;8.27;;;;;;;;;;6250630;22;20081;-86
2023/06/11 02:16:42;;;;;;;18.52;8.77;;;;;;;;;;6251182;22;20008;-86
2023/06/11 02:19:08;;;;;;;14.40;8.23;;;;;;;;;;6251114;22;20039;-86
2023/06/11 02:21:34;;;;;;;14.82;8.82;;;;;;;;;;6250321;22;20481;-86
2023/06/11 02:24:00;;;;;;;18.42;9.15;;;;;;;;;;6224930;22;20012;-86
2023/06/11 02:26:27;;;;;;;15.02;9.15;;;;;;;;;;6251735;22;20018;-86
2023/06/11 02:28:56;;;;;;;15.95;8.75;;;;;;;;;;6249786;22;20003;-85
2023/06/11 02:31:26;;;;;;;15.60;8.98;;;;;;;;;;6251252;22;20088;-86
2023/06/11 02:33:53;;;;;;;14.00;8.65;;;;;;;;;;6251153;22;20011;-86
2023/06/11 02:36:23;;;;;;;16.48;9.23;;;;;;;;;;6251824;22;20027;-86
2023/06/11 02:38:51;;;;;;;13.35;9.43;;;;;;;;;;6251762;22;20094;-86
2023/06/11 02:41:18;;;;;;;19.40;9.07;;;;;;;;;;6253737;22;20019;-86
2023/06/11 02:43:44;;;;;;;15.10;8.82;;;;;;;;;;6226577;22;20020;-86
2023/06/11 02:46:12;;;;;;;14.65;9.05;;;;;;;;;;6251492;22;20456;-86
2023/06/11 02:48:41;;;;;;;17.35;8.93;;;;;;;;;;6227248;22;20020;-86
2023/06/11 02:51:07;;;;;;;13.20;8.85;;;;;;;;;;6227540;22;20008;-87
2023/06/11 02:53:33;;;;;;;14.32;9.55;;;;;;;;;;6228653;22;20037;-86
2023/06/11 02:55:59;;;;;;;21.40;9.38;;;;;;;;;;6252366;22;20004;-86
2023/06/11 02:58:33;;;;;;;13.48;8.73;;;;;;;;;;6254345;22;20430;-86
2023/06/11 03:00:59;;;;;;;14.00;8.88;;;;;;;;;;6252595;22;20014;-85
2023/06/11 03:03:26;;;;;;;15.05;9.65;;;;;;;;;;6254590;22;20000;-85
2023/06/11 03:05:52;;;;;;;17.35;9.32;;;;;;;;;;6251567;22;20037;-86
2023/06/11 03:08:18;;;;;;;18.95;9.88;;;;;;;;;;6228473;22;20046;-85
2023/06/11 03:10:44;;;;;;;16.70;9.80;;;;;;;;;;6280298;22;20441;-86
2023/06/11 03:13:14;;;;;;;13.93;9.10;;;;;;;;;;6225649;22;20013;-86
2023/06/11 03:15:43;;;;;;;15.98;9.93;;;;;;;;;;6226957;22;20071;-85
2023/06/11 03:18:09;;;;;;;17.52;9.35;;;;;;;;;;6227799;22;20011;-87
2023/06/11 03:20:36;;;;;;;15.35;9.77;;;;;;;;;;6226917;22;20093;-87
2023/06/11 03:23:03;;;;;;;17.42;9.48;;;;;;;;;;6251086;22;20015;-86
2023/06/11 03:25:29;;;;;;;16.10;10.02;;;;;;;;;;6225988;22;20016;-87
2023/06/11 03:27:55;;;;;;;15.40;9.20;;;;;;;;;;6227398;22;20058;-87
2023/06/11 03:30:27;;;;;;;17.70;9.68;;;;;;;;;;6225640;22;20477;-89
2023/06/11 03:32:53;;;;;;;14.98;10.25;;;;;;;;;;6281501;22;20020;-87
2023/06/11 03:35:20;;;;;;;16.80;9.52;;;;;;;;;;6251817;22;20008;-87
2023/06/11 03:37:46;;;;;;;14.18;10.07;;;;;;;;;;6227473;22;20023;-86
2023/06/11 03:40:12;;;;;;;20.02;9.77;;;;;;;;;;6226701;22;20112;-86
2023/06/11 03:42:48;;;;;;;16.15;10.43;;;;;;;;;;6229899;22;20038;-87
2023/06/11 03:45:15;;;;;;;15.25;9.10;;;;;;;;;;6253480;22;20039;-86
2023/06/11 03:47:41;;;;;;;13.77;9.82;;;;;;;;;;6253829;22;20335;-86
2023/06/11 03:50:14;;;;;;;16.30;9.32;;;;;;;;;;6251433;22;20380;-86
2023/06/11 03:52:40;;;;;;;22.50;10.98;;;;;;;;;;6254014;22;20003;-86
2023/06/11 03:55:06;;;;;;;20.92;10.82;;;;;;;;;;6253442;22;20388;-87
2023/06/11 03:57:42;;;;;;;19.65;9.73;;;;;;;;;;6279159;22;20069;-88
2023/06/11 04:00:18;;;;;;;18.08;8.98;;;;;;;;;;6252098;22;20008;-87
2023/06/11 04:02:44;;;;;;;13.77;9.40;;;;;;;;;;6255477;22;20008;-86
2023/06/11 04:05:10;;;;;;;12.98;9.82;;;;;;;;;;6253521;22;20038;-87
2023/06/11 04:07:39;;;;;;;15.80;9.98;;;;;;;;;;6253166;22;20008;-87
2023/06/11 04:10:06;;;;;;;20.92;10.57;;;;;;;;;;6255196;22;20012;-87
2023/06/11 04:12:32;;;;;;;15.30;10.35;;;;;;;;;;6251302;22;20007;-87
2023/06/11 04:14:58;;;;;;;19.35;9.88;;;;;;;;;;6277649;22;20014;-88
2023/06/11 04:17:24;;;;;;;19.60;10.05;;;;;;;;;;6252344;22;20012;-87
2023/06/11 04:19:50;;;;;;;20.25;9.98;;;;;;;;;;6253822;22;20011;-87
2023/06/11 04:22:16;;;;;;;24.20;9.80;;;;;;;;;;6254599;22;20454;-87
2023/06/11 04:24:43;;;;;;;17.52;10.13;;;;;;;;;;6254365;22;20334;-87
2023/06/11 04:27:11;;;;;;;20.73;9.65;;;;;;;;;;6252584;22;20280;-87
2023/06/11 04:29:37;;;;;;;14.65;9.73;;;;;;;;;;6254218;22;20075;-87
2023/06/11 04:32:04;;;;;;;20.90;9.35;;;;;;;;;;6254718;22;20034;-88
2023/06/11 04:34:32;;;;;;;15.75;8.95;;;;;;;;;;6253368;22;20014;-86
2023/06/11 04:37:00;;;;;;;17.40;9.77;;;;;;;;;;6255076;22;20031;-86
2023/06/11 04:39:33;;;;;;;16.05;9.38;;;;;;;;;;6255718;22;20069;-88
2023/06/11 04:42:06;;;;;;;14.38;9.43;;;;;;;;;;6257510;22;20027;-88
2023/06/11 04:44:32;;;;;;;18.35;9.52;;;;;;;;;;6226154;22;20012;-88
2023/06/11 04:47:05;;;;;;;13.60;8.90;;;;;;;;;;6228744;22;20311;-88
2023/06/11 04:49:37;;;;;;;24.58;11.88;;;;;;;;;;6285155;22;20034;-85
2023/06/11 04:52:04;;;;;;;16.83;9.35;;;;;;;;;;6260918;22;20004;-87
2023/06/11 04:54:34;;;;;;;14.98;8.90;;;;;;;;;;6236309;22;20012;-87
2023/06/11 04:57:01;;;;;;;13.13;9.25;;;;;;;;;;6233179;22;20012;-87
2023/06/11 04:59:27;;;;;;;17.42;9.10;;;;;;;;;;6251945;22;20007;-87
2023/06/11 05:01:53;;;;;;;16.55;9.95;;;;;;;;;;6250794;22;20015;-87
2023/06/11 05:04:21;;;;;;;16.90;9.07;;;;;;;;;;6277649;22;20003;-86
2023/06/11 05:06:48;;;;;;;14.38;9.00;;;;;;;;;;6249814;22;20034;-87
2023/06/11 05:09:23;;;;;;;18.05;9.65;;;;;;;;;;6250321;22;20008;-87
2023/06/11 05:11:49;;;;;;;16.40;10.13;;;;;;;;;;6225181;22;20019;-88
2023/06/11 05:14:16;;;;;;;14.77;8.52;;;;;;;;;;6225342;22;20011;-88
2023/06/11 05:16:42;;;;;;;17.80;8.93;;;;;;;;;;6225474;22;20061;-88
2023/06/11 05:19:08;;;;;;;12.40;9.40;;;;;;;;;;6225092;22;20011;-87
2023/06/11 05:21:34;;;;;;;21.17;9.95;;;;;;;;;;6225466;22;20031;-87
2023/06/11 05:24:07;;;;;;;15.77;8.25;;;;;;;;;;6224993;22;20011;-88
2023/06/11 05:26:37;;;;;;;20.38;9.45;;;;;;;;;;6249640;22;20019;-86
2023/06/11 05:29:04;;;;;;;16.25;8.55;;;;;;;;;;6251092;22;20015;-88
2023/06/11 05:31:32;;;;;;;14.50;8.25;;;;;;;;;;6250506;22;20030;-88
2023/06/11 05:33:59;;;;;;;15.93;8.98;;;;;;;;;;6251573;22;20119;-89
2023/06/11 05:36:27;;;;;;;12.38;8.85;;;;;;;;;;6248813;22;20034;-87
2023/06/11 05:38:53;;;;;;;15.68;8.88;;;;;;;;;;6225640;22;20439;-88
2023/06/11 05:41:27;;;;;;;15.07;8.88;;;;;;;;;;6225860;22;20016;-88
2023/06/11 05:43:57;;;;;;;28.70;10.13;;;;;;;;;;6226622;22;20359;-88
2023/06/11 05:46:25;;;;;;;16.60;8.77;;;;;;;;;;6250242;22;20007;-88
2023/06/11 05:48:52;;;;;;;12.70;9.05;;;;;;;;;;6251719;22;20015;-87
2023/06/11 05:51:18;;;;;;;20.23;9.60;;;;;;;;;;6251616;22;20000;-88
2023/06/11 05:53:46;;;;;;;13.43;9.07;;;;;;;;;;6226234;22;20008;-88
2023/06/11 05:56:12;;;;;;;12.45;8.70;;;;;;;;;;6226036;22;20017;-87
2023/06/11 05:58:38;;;;;;;12.80;8.77;;;;;;;;;;6250939;22;20004;-86
2023/06/11 06:01:06;;;;;;;15.68;9.00;;;;;;;;;;6277250;22;20382;-86
2023/06/11 06:03:42;;;;;;;12.00;8.57;;;;;;;;;;6277915;22;20228;-87
2023/06/11 06:06:09;;;;;;;12.70;8.77;;;;;;;;;;6224256;22;20035;-88
2023/06/11 06:08:36;;;;;;;17.85;8.68;;;;;;;;;;6224519;22;20015;-87
2023/06/11 06:11:02;;;;;;;16.95;8.90;;;;;;;;;;6223628;22;20003;-87
2023/06/11 06:13:28;;;;;;;11.82;8.35;;;;;;;;;;6224583;22;20034;-87
2023/06/11 06:15:55;;;;;;;20.70;8.20;;;;;;;;;;6224816;22;20429;-86
2023/06/11 06:18:21;;;;;;;15.45;8.63;;;;;;;;;;6251364;22;20004;-87
2023/06/11 06:20:47;;;;;;;12.57;7.97;;;;;;;;;;6250648;22;20011;-87
2023/06/11 06:23:14;;;;;;;12.07;8.60;;;;;;;;;;6250101;22;20008;-87
2023/06/11 06:25:42;;;;;;;12.95;8.60;;;;;;;;;;6249546;22;20012;-87
2023/06/11 06:28:10;;;;;;;15.75;9.68;;;;;;;;;;6226944;22;20030;-86
2023/06/11 06:30:38;;;;;;;10.18;7.30;;;;;;;;;;6248918;22;20025;-87
2023/06/11 06:33:05;;;;;;;15.60;8.45;;;;;;;;;;6250957;22;20004;-87
2023/06/11 06:35:32;;;;;;;11.00;8.07;;;;;;;;;;6224960;22;20003;-87
2023/06/11 06:37:59;;;;;;;12.88;8.88;;;;;;;;;;6249091;22;20012;-87
2023/06/11 06:40:28;;;;;;;15.02;8.30;;;;;;;;;;6251411;22;20012;-88
2023/06/11 06:43:01;;;;;;;16.80;8.95;;;;;;;;;;6253050;22;20327;-87
2023/06/11 06:45:34;;;;;;;12.88;8.00;;;;;;;;;;6249076;22;20016;-87
2023/06/11 06:48:00;;;;;;;10.63;8.45;;;;;;;;;;6225678;22;20093;-87
2023/06/11 06:50:27;;;;;;;11.48;8.02;;;;;;;;;;6249318;22;20008;-87
2023/06/11 06:52:53;;;;;;;12.40;7.80;;;;;;;;;;6226318;22;20008;-87
2023/06/11 06:55:19;;;;;;;11.05;7.78;;;;;;;;;;6251531;22;20432;-87
2023/06/11 06:57:46;;;;;;;11.77;8.10;;;;;;;;;;6251404;22;20004;-86
2023/06/11 07:00:14;;;;;;;12.32;7.70;;;;;;;;;;6251533;22;20142;-87
2023/06/11 07:02:42;;;;;;;15.05;8.02;;;;;;;;;;6227126;22;20048;-87
2023/06/11 07:05:08;;;;;;;10.77;8.15;;;;;;;;;;6252083;22;20011;-86
2023/06/11 07:07:41;;;;;;;12.25;7.70;;;;;;;;;;6226258;22;20326;-87
2023/06/11 07:10:08;;;;;;;18.65;8.13;;;;;;;;;;6226207;22;20023;-87
2023/06/11 07:12:34;;;;;;;10.25;7.32;;;;;;;;;;6252408;22;20003;-87
2023/06/11 07:15:01;;;;;;;14.75;9.10;;;;;;;;;;6252751;22;20016;-87
2023/06/11 07:17:27;;;;;;;12.52;8.00;;;;;;;;;;6226157;22;20047;-86
2023/06/11 07:20:04;;;;;;;20.83;8.50;;;;;;;;;;6279881;22;20263;-87
2023/06/11 07:22:31;;;;;;;16.83;8.60;;;;;;;;;;6253791;22;20011;-87
2023/06/11 07:24:58;;;;;;;13.25;7.05;;;;;;;;;;6279918;22;20069;-87
2023/06/11 07:27:24;;;;;;;13.88;8.57;;;;;;;;;;6252374;22;20437;-87
2023/06/11 07:29:51;;;;;;;14.63;8.00;;;;;;;;;;6226808;22;20011;-87
2023/06/11 07:32:17;;;;;;;11.35;7.78;;;;;;;;;;6226884;22;20127;-87
2023/06/11 07:34:43;;;;;;;10.45;8.65;;;;;;;;;;6228004;22;20054;-88
2023/06/11 07:37:12;;;;;;;11.20;8.35;;;;;;;;;;6230232;22;20058;-87
2023/06/11 07:39:50;;;;;;;8.98;7.68;;;;;;;;;;6229440;22;20011;-87
2023/06/11 07:42:19;;;;;;;16.42;8.02;;;;;;;;;;6232281;22;20328;-88
2023/06/11 07:44:55;;;;;;;13.73;8.07;;;;;;;;;;6255454;22;20019;-88
2023/06/11 07:47:21;;;;;;;11.50;7.72;;;;;;;;;;6254070;22;20022;-87
2023/06/11 07:49:47;;;;;;;11.00;7.97;;;;;;;;;;6253736;22;20004;-86
2023/06/11 07:52:14;;;;;;;15.75;8.23;;;;;;;;;;6254486;22;20008;-87
2023/06/11 07:54:40;;;;;;;11.82;7.55;;;;;;;;;;6254720;22;20479;-87
2023/06/11 07:57:08;;;;;;;11.82;7.95;;;;;;;;;;6228571;22;20016;-87
2023/06/11 07:59:40;;;;;;;10.07;7.63;;;;;;;;;;6281856;22;20004;-87
2023/06/11 08:02:13;;;;;;;13.13;7.47;;;;;;;;;;6253748;22;20094;-89
2023/06/11 08:04:42;;;;;;;11.25;7.47;;;;;;;;;;6281796;22;20059;-87
2023/06/11 08:07:11;;;;;;;15.20;6.88;;;;;;;;;;6255824;22;20011;-88
2023/06/11 08:09:38;;;;;;;13.18;7.72;;;;;;;;;;6284054;22;20004;-87
2023/06/11 08:12:07;;;;;;;11.88;7.70;;;;;;;;;;6253668;22;20004;-87
2023/06/11 08:14:35;;;;;;;14.77;8.00;;;;;;;;;;6256489;22;20019;-87
2023/06/11 08:17:02;;;;;;;14.45;8.30;;;;;;;;;;6255575;22;20027;-87
2023/06/11 08:19:28;;;;;;;13.48;7.30;;;;;;;;;;6257858;22;20004;-88
2023/06/11 08:22:16;;;;;;;12.55;6.75;;;;;;;;;;6282001;22;20003;-87
2023/06/11 08:24:42;;;;;;;11.85;7.80;;;;;;;;;;6254502;22;20011;-88
2023/06/11 08:27:09;;;;;;;11.57;8.23;;;;;;;;;;6255378;22;20071;-87
2023/06/11 08:29:39;;;;;;;12.15;7.38;;;;;;;;;;6252988;22;20019;-87
2023/06/11 08:32:08;;;;;;;11.23;8.52;;;;;;;;;;6256356;22;20110;-87
2023/06/11 08:34:37;;;;;;;12.48;7.50;;;;;;;;;;6259287;22;20030;-86
2023/06/11 08:37:10;;;;;;;16.48;7.60;;;;;;;;;;6257764;22;20071;-87
2023/06/11 08:39:39;;;;;;;15.45;7.43;;;;;;;;;;6257896;22;20026;-88
2023/06/11 08:42:05;;;;;;;16.30;9.13;;;;;;;;;;6266141;22;20137;-87
2023/06/11 08:44:34;;;;;;;8.82;6.75;;;;;;;;;;6291291;22;20009;-87
2023/06/11 08:47:12;;;;;;;14.07;8.20;;;;;;;;;;6270625;22;20022;-86
2023/06/11 08:49:40;;;;;;;9.07;6.80;;;;;;;;;;6296662;22;20019;-87
2023/06/11 08:52:27;;;;;;;10.00;6.65;;;;;;;;;;6275683;22;20003;-87
2023/06/11 09:03:49;;;;;;;14.93;7.97;;;;;;;;;;6331596;22;20061;-88
2023/06/11 09:06:16;;;;;;;10.50;7.38;;;;;;;;;;6305821;22;20018;-88
2023/06/11 09:09:08;;;;;;;12.50;7.25;;;;;;;;;;6295037;22;20475;-88
2023/06/11 09:11:39;;;;;;;13.68;7.63;;;;;;;;;;6245557;22;20445;-86
2023/06/11 09:14:30;;;;;;;10.45;7.20;;;;;;;;;;6300664;22;20307;-88
2023/06/11 09:17:16;;;;;;;11.98;7.18;;;;;;;;;;6294390;22;20003;-89
2023/06/11 09:26:39;;;;;;;15.40;7.03;;;;;;;;;;6150906;23;19998;-88
2023/06/11 09:36:14;;;;;;;;;;;;;;;;;;;;;
2023/06/11 09:38:50;;;;;;;15.77;7.18;;;;;;;;;;6157530;23;19994;-87
2023/06/11 09:50:11;;;;;;;6.55;5.78;;;;;;;;;;6172632;23;20093;-88
2023/06/11 09:52:41;;;;;;;9.98;7.18;;;;;;;;;;6123160;23;20052;-88
2023/06/11 09:55:41;;;;;;;10.55;7.10;;;;;;;;;;6143132;23;20006;-88
2023/06/11 10:01:00;;;;;;;13.55;6.70;;;;;;;;;;6224136;23;20107;-88
2023/06/11 10:03:36;;;;;;;8.18;6.13;;;;;;;;;;6196005;23;20347;-88
2023/06/11 10:06:10;;;;;;;11.80;6.82;;;;;;;;;;6235660;22;20008;-86
2023/06/11 10:09:10;;;;;;;7.78;5.93;;;;;;;;;;6269060;22;20011;-87
2023/06/11 10:11:40;;;;;;;11.10;6.95;;;;;;;;;;6280758;22;20034;-88
2023/06/11 10:17:59;;;;;;;;;;;;;;;;;;;;;
2023/06/11 10:20:35;;;;;;;11.18;6.13;;;;;;;;;;6262124;22;20019;-88
2023/06/11 10:23:20;;;;;;;6.25;5.65;;;;;;;;;;6292162;22;20003;-88
2023/06/11 10:25:58;;;;;;;11.40;6.22;;;;;;;;;;6261931;22;20497;-88
2023/06/11 10:28:36;;;;;;;14.48;6.47;;;;;;;;;;6265047;22;20068;-87
2023/06/11 10:31:04;;;;;;;9.00;5.63;;;;;;;;;;6259542;22;20026;-87
2023/06/11 10:33:49;;;;;;;7.13;6.07;;;;;;;;;;6293939;22;20324;-88
2023/06/11 10:36:41;;;;;;;7.47;6.40;;;;;;;;;;6270976;22;20007;-87
2023/06/11 10:39:39;;;;;;;9.90;5.90;;;;;;;;;;6264545;22;20057;-88
2023/06/11 10:42:05;;;;;;;8.25;6.35;;;;;;;;;;6262835;22;20424;-87
2023/06/11 10:44:54;;;;;;;8.35;6.25;;;;;;;;;;6238974;22;20050;-88
2023/06/11 10:47:20;;;;;;;7.45;5.78;;;;;;;;;;6215551;23;20019;-87
2023/06/11 10:53:30;;;;;;;7.78;5.70;;;;;;;;;;6221086;23;20005;-88
2023/06/11 10:55:56;;;;;;;6.22;5.53;;;;;;;;;;6229318;23;20012;-88
2023/06/11 10:58:36;;;;;;;9.00;5.25;;;;;;;;;;6203050;23;20028;-90
2023/06/11 11:01:06;;;;;;;9.23;6.35;;;;;;;;;;6223596;23;20004;-88
2023/06/11 11:03:58;;;;;;;12.25;6.35;;;;;;;;;;6242899;22;19991;-88
2023/06/11 11:06:28;;;;;;;9.52;6.05;;;;;;;;;;6267943;22;20371;-88
2023/06/11 11:08:59;;;;;;;13.35;5.70;;;;;;;;;;6292233;22;20007;-87
2023/06/11 11:11:27;;;;;;;9.75;5.90;;;;;;;;;;6235751;22;20027;-87
2023/06/11 11:14:10;;;;;;;;;;;;;;;;;;;;;
2023/06/11 11:16:39;;;;;;;9.82;5.85;;;;;;;;;;6272775;22;20008;-87
2023/06/11 11:21:56;;;;;;;6.72;5.70;;;;;;;;;;6281198;22;20012;-89
2023/06/11 11:24:27;;;;;;;10.27;4.97;;;;;;;;;;6258946;22;20008;-88
2023/06/11 11:26:58;;;;;;;6.07;5.50;;;;;;;;;;6287456;22;20353;-88
2023/06/11 11:29:37;;;;;;;8.18;5.90;;;;;;;;;;6267393;22;20007;-88
2023/06/11 11:32:13;;;;;;;14.32;6.22;;;;;;;;;;6268427;22;20407;-88
2023/06/11 11:34:41;;;;;;;6.32;4.95;;;;;;;;;;6265612;22;20023;-88
2023/06/11 11:37:07;;;;;;;7.93;5.10;;;;;;;;;;6256657;22;20008;-89
2023/06/11 11:39:42;;;;;;;11.27;5.28;;;;;;;;;;6255670;22;20003;-89
2023/06/11 11:42:40;;;;;;;8.77;5.18;;;;;;;;;;6264954;22;20037;-89
2023/06/11 11:45:12;;;;;;;10.73;4.95;;;;;;;;;;6273404;22;20015;-87
2023/06/11 11:50:53;;;;;;;10.38;5.18;;;;;;;;;;6295976;22;20049;-88
2023/06/11 11:53:32;;;;;;;8.07;6.22;;;;;;;;;;6263730;22;20034;-88
2023/06/11 11:59:05;;;;;;;11.57;4.90;;;;;;;;;;6321422;22;20050;-88
2023/06/11 12:01:37;;;;;;;13.05;5.45;;;;;;;;;;6289047;22;20011;-88
2023/06/11 12:04:06;;;;;;;6.05;5.25;;;;;;;;;;6266231;22;20019;-87
2023/06/11 12:06:32;;;;;;;8.60;5.50;;;;;;;;;;6267509;22;20227;-88
2023/06/11 12:09:00;;;;;;;7.68;5.10;;;;;;;;;;6316942;22;20018;-88
2023/06/11 12:11:29;;;;;;;9.80;5.68;;;;;;;;;;6267385;22;20008;-87
2023/06/11 12:19:48;;;;;;;10.52;6.07;;;;;;;;;;6212579;22;20042;-88
2023/06/11 12:22:58;;;;;;;8.15;5.50;;;;;;;;;;6301729;22;20030;-87
2023/06/11 12:25:25;;;;;;;8.90;4.80;;;;;;;;;;6195023;23;20013;-88
2023/06/11 12:28:09;;;;;;;8.02;6.00;;;;;;;;;;6290674;22;20011;-88
2023/06/11 12:30:35;;;;;;;7.97;5.90;;;;;;;;;;6266552;22;20003;-88
2023/06/11 12:33:03;;;;;;;7.32;5.60;;;;;;;;;;6314850;22;20002;-88
2023/06/11 12:35:36;;;;;;;7.60;5.35;;;;;;;;;;6292021;22;20007;-87
2023/06/11 12:38:23;;;;;;;7.53;5.97;;;;;;;;;;6314419;22;20014;-88
2023/06/11 12:40:49;;;;;;;14.50;6.50;;;;;;;;;;6275566;22;20018;-87
2023/06/11 12:43:28;;;;;;;8.25;4.70;;;;;;;;;;6293171;22;20037;-89
2023/06/11 12:46:31;;;;;;;;;;;;;;;;;;;;;
2023/06/11 12:49:16;;;;;;;8.65;5.68;;;;;;;;;;6211017;22;20000;-88
2023/06/11 12:55:25;;;;;;;;;;;;;;;;;;;;;
2023/06/11 12:58:12;;;;;;;;;;;;;;;;;;;;;
2023/06/11 13:00:45;;;;;;;7.65;5.88;;;;;;;;;;6187590;23;20023;-87
2023/06/11 13:03:15;;;;;;;6.43;5.55;;;;;;;;;;6175757;23;20005;-87
2023/06/11 13:06:09;;;;;;;8.77;5.55;;;;;;;;;;6185297;23;19996;-87
2023/06/11 13:08:58;;;;;;;8.90;5.70;;;;;;;;;;6211926;23;19999;-88
2023/06/11 13:11:39;;;;;;;11.93;5.80;;;;;;;;;;6208926;22;20051;-87
2023/06/11 13:14:43;;;;;;;10.65;6.10;;;;;;;;;;6234506;23;20008;-86
2023/06/11 13:18:12;;;;;;;;;;;;;;;;;;;;;
2023/06/11 13:20:24;;;;;;;11.35;5.47;;;;;;;;;;6185795;23;20038;-88
2023/06/11 13:22:55;;;;;;;9.85;5.05;;;;;;;;;;6167101;23;20309;-89
2023/06/11 13:25:24;;;;;;;7.32;5.68;;;;;;;;;;6237852;22;20385;-86
2023/06/11 13:27:50;;;;;;;7.40;5.40;;;;;;;;;;6256336;22;20019;-87
2023/06/11 13:30:34;;;;;;;7.90;5.30;;;;;;;;;;6248978;22;20007;-87
2023/06/11 13:33:00;;;;;;;7.37;5.50;;;;;;;;;;6309503;22;20004;-87
2023/06/11 13:35:28;;;;;;;7.13;5.63;;;;;;;;;;6258182;22;20237;-87
2023/06/11 13:38:17;;;;;;;7.03;5.38;;;;;;;;;;6309969;22;20022;-87
2023/06/11 13:40:45;;;;;;;7.82;5.85;;;;;;;;;;6258411;22;20007;-88
2023/06/11 13:43:11;;;;;;;10.07;5.65;;;;;;;;;;6261289;22;20034;-88
2023/06/11 13:45:49;;;;;;;6.68;5.10;;;;;;;;;;6242281;22;20467;-87
2023/06/11 13:48:20;;;;;;;6.18;5.15;;;;;;;;;;6252625;22;20016;-88
2023/06/11 13:50:59;;;;;;;6.28;4.85;;;;;;;;;;6225321;22;20011;-88
2023/06/11 13:53:29;;;;;;;10.30;5.53;;;;;;;;;;6253130;22;20083;-87
2023/06/11 13:55:55;;;;;;;7.80;5.57;;;;;;;;;;6253112;22;20053;-88
2023/06/11 13:58:24;;;;;;;8.85;5.53;;;;;;;;;;6251623;22;20105;-87
2023/06/11 14:00:51;;;;;;;8.57;4.90;;;;;;;;;;6251074;22;20022;-87
2023/06/11 14:03:17;;;;;;;10.05;5.18;;;;;;;;;;6251935;22;20020;-88
2023/06/11 14:05:43;;;;;;;7.75;5.28;;;;;;;;;;6250627;22;20079;-88
2023/06/11 14:08:17;;;;;;;12.95;4.75;;;;;;;;;;6224534;22;20071;-88
2023/06/11 14:10:46;;;;;;;12.60;5.38;;;;;;;;;;6249841;22;20015;-86
2023/06/11 14:13:24;;;;;;;9.18;5.10;;;;;;;;;;6248848;22;20027;-88
2023/06/11 14:15:56;;;;;;;10.90;5.47;;;;;;;;;;6282569;22;20000;-87
2023/06/11 14:18:30;;;;;;;12.90;5.40;;;;;;;;;;6258476;22;20012;-87
2023/06/11 14:20:57;;;;;;;7.35;5.70;;;;;;;;;;6256433;22;20011;-88
2023/06/11 14:23:30;;;;;;;14.57;5.78;;;;;;;;;;6255148;22;20008;-88
2023/06/11 14:25:56;;;;;;;9.48;5.32;;;;;;;;;;6257617;22;20392;-87
2023/06/11 14:28:23;;;;;;;7.53;5.82;;;;;;;;;;6282741;22;20060;-89
2023/06/11 14:30:54;;;;;;;6.60;5.45;;;;;;;;;;6257349;22;20007;-87
2023/06/11 14:33:25;;;;;;;10.52;6.07;;;;;;;;;;6257149;22;20563;-88
2023/06/11 14:35:55;;;;;;;11.52;4.80;;;;;;;;;;6218516;23;20001;-87
2023/06/11 14:38:24;;;;;;;8.10;5.20;;;;;;;;;;6169801;23;20012;-87
2023/06/11 14:40:53;;;;;;;7.13;5.40;;;;;;;;;;6193873;23;20036;-88
2023/06/11 14:43:22;;;;;;;7.25;5.38;;;;;;;;;;6170277;23;20390;-88
2023/06/11 14:45:57;;;;;;;9.02;5.93;;;;;;;;;;6197040;23;20099;-87
2023/06/11 14:48:30;;;;;;;8.43;6.13;;;;;;;;;;6194139;23;20408;-87
2023/06/11 14:50:56;;;;;;;9.40;5.47;;;;;;;;;;6171070;23;20477;-87
2023/06/11 14:53:23;;;;;;;11.63;5.50;;;;;;;;;;6193705;23;20328;-87
2023/06/11 14:55:53;;;;;;;17.25;6.57;;;;;;;;;;6220966;23;20090;-87
2023/06/11 14:58:19;;;;;;;7.20;5.88;;;;;;;;;;6170532;23;20012;-87
2023/06/11 15:00:45;;;;;;;6.90;5.80;;;;;;;;;;6169636;23;20082;-87
2023/06/11 15:03:12;;;;;;;9.73;5.63;;;;;;;;;;6172232;23;20403;-86
2023/06/11 15:05:39;;;;;;;8.95;6.28;;;;;;;;;;6195124;23;20175;-88
2023/06/11 15:08:05;;;;;;;15.52;6.75;;;;;;;;;;6196414;23;20017;-87
2023/06/11 15:10:37;;;;;;;9.07;6.10;;;;;;;;;;6195067;23;20005;-87
2023/06/11 15:13:07;;;;;;;6.88;5.72;;;;;;;;;;6220130;22;20004;-87
2023/06/11 15:15:37;;;;;;;10.25;6.28;;;;;;;;;;6258827;22;20050;-87
2023/06/11 15:18:05;;;;;;;7.15;5.43;;;;;;;;;;6256567;22;20026;-87
2023/06/11 15:20:31;;;;;;;8.75;6.13;;;;;;;;;;6283245;22;20015;-87
2023/06/11 15:22:58;;;;;;;6.55;5.72;;;;;;;;;;6254902;22;20012;-87
2023/06/11 15:25:24;;;;;;;11.35;6.55;;;;;;;;;;6256745;22;20016;-88
2023/06/11 15:27:50;;;;;;;7.78;6.20;;;;;;;;;;6256419;22;20012;-88
2023/06/11 15:30:17;;;;;;;7.45;6.70;;;;;;;;;;6257286;22;20082;-88
2023/06/11 15:32:44;;;;;;;8.48;6.80;;;;;;;;;;6283706;22;20318;-87
2023/06/11 15:35:19;;;;;;;8.57;6.00;;;;;;;;;;6257584;22;20441;-87
2023/06/11 15:38:03;;;;;;;11.98;7.90;;;;;;;;;;6265885;22;20106;-88
2023/06/11 15:40:31;;;;;;;17.50;6.55;;;;;;;;;;6285357;22;20495;-87
2023/06/11 15:43:06;;;;;;;12.75;6.38;;;;;;;;;;6258515;22;20012;-87
2023/06/11 15:45:54;;;;;;;;;;;;;;;;;;;;;
2023/06/11 15:48:23;;;;;;;11.65;6.60;;;;;;;;;;6312771;22;20045;-88
2023/06/11 15:50:49;;;;;;;7.82;6.85;;;;;;;;;;6285565;22;20031;-88
2023/06/11 15:53:18;;;;;;;9.05;6.38;;;;;;;;;;6260150;22;20011;-88
2023/06/11 15:55:45;;;;;;;10.07;6.70;;;;;;;;;;6260451;22;20007;-88
2023/06/11 15:58:15;;;;;;;13.40;9.45;;;;;;;;;;6285214;22;20014;-88
2023/06/11 16:00:44;;;;;;;9.00;6.03;;;;;;;;;;6259411;22;20021;-88
2023/06/11 16:03:15;;;;;;;13.55;6.28;;;;;;;;;;6313902;22;20008;-88